createdAt,value
2023-03-26T00:00:06.135Z,99121.42
2023-03-26T00:04:13.848Z,99121.77
2023-03-26T00:08:22.378Z,99118.00
2023-03-26T00:12:30.013Z,99115.01
2023-03-26T00:16:37.618Z,99110.23
2023-03-26T00:20:45.801Z,99111.31
2023-03-26T00:24:53.719Z,99109.52
2023-03-26T00:29:03.970Z,99104.46
2023-03-26T00:33:17.351Z,99100.45
2023-03-26T00:37:26.648Z,99099.65
2023-03-26T00:41:37.460Z,99093.96
2023-03-26T00:45:44.929Z,99092.05
2023-03-26T00:49:52.616Z,99083.38
2023-03-26T00:54:00.909Z,99084.05
2023-03-26T00:58:10.367Z,99083.60
2023-03-26T01:02:21.184Z,99084.58
2023-03-26T01:06:33.164Z,99085.77
2023-03-26T01:10:42.265Z,99088.79
2023-03-26T01:14:52.054Z,99083.02
2023-03-26T01:19:00.971Z,99078.04
2023-03-26T01:23:10.140Z,99084.98
2023-03-26T01:27:25.843Z,99088.86
2023-03-26T01:31:39.773Z,99088.95
2023-03-26T01:35:51.414Z,99094.00
2023-03-26T01:40:07.309Z,99096.59
2023-03-26T01:44:21.188Z,99091.67
2023-03-26T01:48:35.114Z,99092.45
2023-03-26T01:52:42.981Z,99096.61
2023-03-26T01:56:57.063Z,99088.11
2023-03-26T02:01:12.885Z,99087.71
2023-03-26T02:05:24.300Z,99085.67
2023-03-26T02:09:35.056Z,99083.27
2023-03-26T02:13:44.849Z,99085.92
2023-03-26T02:17:53.563Z,99084.16
2023-03-26T02:22:02.487Z,99082.54
2023-03-26T02:26:12.221Z,99080.36
2023-03-26T02:30:25.743Z,99075.14
2023-03-26T02:34:33.800Z,99080.23
2023-03-26T02:38:41.751Z,99074.82
2023-03-26T02:42:49.632Z,99074.36
2023-03-26T02:46:58.393Z,99068.86
2023-03-26T02:51:07.797Z,99064.35
2023-03-26T02:55:15.492Z,99061.56
2023-03-26T02:59:23.397Z,99064.41
2023-03-26T03:03:31.254Z,99062.48
2023-03-26T03:07:39.195Z,99060.75
2023-03-26T03:11:47.632Z,99057.84
2023-03-26T03:15:56.541Z,99059.63
2023-03-26T03:20:06.216Z,99056.15
2023-03-26T03:24:14.109Z,99061.46
2023-03-26T03:28:22.795Z,99064.41
2023-03-26T03:32:30.819Z,99067.86
2023-03-26T03:36:39.523Z,99074.41
2023-03-26T03:40:47.601Z,99076.75
2023-03-26T03:44:55.501Z,99079.29
2023-03-26T03:49:03.996Z,99085.93
2023-03-26T03:53:16.570Z,99084.03
2023-03-26T03:57:24.385Z,99087.42
2023-03-26T04:01:33.137Z,99091.16
2023-03-26T04:05:41.311Z,99088.81
2023-03-26T04:09:48.461Z,99094.77
2023-03-26T04:13:56.050Z,99101.66
2023-03-26T04:18:04.026Z,99108.72
2023-03-26T04:22:12.225Z,99115.66
2023-03-26T04:26:22.352Z,99119.94
2023-03-26T04:30:31.691Z,99119.80
2023-03-26T04:34:39.880Z,99109.04
2023-03-26T04:38:49.383Z,99124.66
2023-03-26T04:43:00.163Z,99122.54
2023-03-26T04:47:08.073Z,99123.83
2023-03-26T04:51:18.619Z,99120.21
2023-03-26T04:55:27.716Z,99113.65
2023-03-26T04:59:37.525Z,99110.92
2023-03-26T05:03:46.066Z,99108.73
2023-03-26T05:07:53.727Z,99109.13
2023-03-26T05:12:01.490Z,99113.27
2023-03-26T05:16:10.512Z,99113.42
2023-03-26T05:20:22.048Z,99110.79
2023-03-26T05:24:29.805Z,99110.13
2023-03-26T05:28:37.345Z,99114.48
2023-03-26T05:32:44.794Z,99119.58
2023-03-26T05:36:53.169Z,99117.40
2023-03-26T05:41:06.387Z,99113.59
2023-03-26T05:45:16.707Z,99109.63
2023-03-26T05:49:24.581Z,99112.25
2023-03-26T05:53:32.866Z,99114.30
2023-03-26T05:57:40.496Z,99119.64
2023-03-26T06:01:51.227Z,99124.45
2023-03-26T06:05:59.764Z,99123.15
2023-03-26T06:10:09.652Z,99124.39
2023-03-26T06:14:17.260Z,99124.79
2023-03-26T06:18:25.731Z,99121.54
2023-03-26T06:22:34.405Z,99120.81
2023-03-26T06:26:42.278Z,99125.22
2023-03-26T06:30:50.343Z,99119.50
2023-03-26T06:34:58.241Z,99124.83
2023-03-26T06:39:07.586Z,99126.64
2023-03-26T06:43:16.083Z,99122.77
2023-03-26T06:47:24.160Z,99125.34
2023-03-26T06:51:32.292Z,99130.08
2023-03-26T06:55:39.944Z,99131.77
2023-03-26T06:59:48.632Z,99129.41
2023-03-26T07:03:57.146Z,99132.95
2023-03-26T07:08:08.407Z,99133.41
2023-03-26T07:12:18.503Z,99133.69
2023-03-26T07:16:28.738Z,99132.79
2023-03-26T07:20:38.066Z,99130.60
2023-03-26T07:24:47.949Z,99133.28
2023-03-26T07:29:04.429Z,99139.14
2023-03-26T07:33:16.376Z,99133.05
2023-03-26T07:37:36.950Z,99134.15
2023-03-26T07:41:48.004Z,99130.08
2023-03-26T07:45:58.655Z,99127.06
2023-03-26T07:50:09.969Z,99125.95
2023-03-26T07:54:19.312Z,99120.54
2023-03-26T07:58:41.408Z,99117.69
2023-03-26T08:03:25.135Z,99120.09
2023-03-26T08:07:45.271Z,99120.46
2023-03-26T08:11:59.176Z,99112.36
2023-03-26T08:16:12.812Z,99105.70
2023-03-26T08:20:34.404Z,99103.49
2023-03-26T08:24:49.434Z,99100.82
2023-03-26T08:29:05.933Z,99101.09
2023-03-26T08:33:20.804Z,99091.73
2023-03-26T08:37:29.515Z,99091.58
2023-03-26T08:42:12.769Z,99085.58
2023-03-26T08:46:40.839Z,99081.42
2023-03-26T08:51:08.014Z,99080.46
2023-03-26T08:55:52.094Z,99084.34
2023-03-26T09:04:51.811Z,99085.38
2023-03-26T09:09:43.284Z,99077.57
2023-03-26T09:14:23.093Z,99071.28
2023-03-26T09:19:01.515Z,99073.95
2023-03-26T09:23:28.152Z,99072.72
2023-03-26T09:27:46.633Z,99066.78
2023-03-26T09:32:31.478Z,99070.92
2023-03-26T09:36:59.304Z,99069.26
2023-03-26T09:41:12.487Z,99066.59
2023-03-26T09:45:48.276Z,99074.66
2023-03-26T09:50:04.204Z,99084.46
2023-03-26T09:54:52.372Z,99092.98
2023-03-26T09:59:32.124Z,99081.18
2023-03-26T10:03:53.570Z,99087.56
2023-03-26T10:08:13.025Z,99080.26
2023-03-26T10:12:29.296Z,99073.70
2023-03-26T10:16:46.506Z,99073.57
2023-03-26T10:21:01.388Z,99073.14
2023-03-26T10:25:27.466Z,99070.90
2023-03-26T10:29:53.131Z,99066.43
2023-03-26T10:34:28.687Z,99050.14
2023-03-26T10:38:53.013Z,99053.83
2023-03-26T10:44:05.544Z,99057.11
2023-03-26T10:48:42.536Z,99047.80
2023-03-26T10:52:53.945Z,99038.60
2023-03-26T10:57:03.967Z,99029.88
2023-03-26T11:01:20.412Z,99021.91
2023-03-26T11:05:39.748Z,99017.84
2023-03-26T11:09:52.985Z,99017.10
2023-03-26T11:14:10.282Z,99012.77
2023-03-26T11:18:21.080Z,99014.27
2023-03-26T11:22:36.251Z,99015.91
2023-03-26T11:26:53.248Z,99008.81
2023-03-26T11:31:09.121Z,99007.84
2023-03-26T11:35:40.400Z,99002.78
2023-03-26T11:39:56.464Z,98997.36
2023-03-26T11:44:08.936Z,98994.31
2023-03-26T11:48:20.595Z,98999.63
2023-03-26T11:52:29.156Z,99002.79
2023-03-26T11:56:39.288Z,99008.22
2023-03-26T12:00:49.377Z,99003.30
2023-03-26T12:05:12.486Z,99000.47
2023-03-26T12:09:21.395Z,98993.20
2023-03-26T12:13:38.136Z,98992.39
2023-03-26T12:17:52.625Z,98984.34
2023-03-26T12:22:00.495Z,98978.22
2023-03-26T12:26:22.484Z,98972.86
2023-03-26T12:30:34.040Z,98965.64
2023-03-26T12:34:41.934Z,98964.77
2023-03-26T12:39:42.757Z,98954.00
2023-03-26T12:44:52.999Z,98945.52
2023-03-26T12:48:03.945Z,98940.63
2023-03-26T12:52:33.266Z,98935.27
2023-03-26T12:56:44.131Z,98935.45
2023-03-26T13:00:57.045Z,98932.27
2023-03-26T13:05:15.109Z,98929.51
2023-03-26T13:09:41.611Z,98927.40
2023-03-26T13:14:01.006Z,98917.14
2023-03-26T13:18:21.663Z,98916.19
2023-03-26T13:22:35.365Z,98915.10
2023-03-26T13:26:53.362Z,98922.26
2023-03-26T13:31:06.684Z,98922.84
2023-03-26T13:35:31.575Z,98919.62
2023-03-26T13:39:46.991Z,98917.61
2023-03-26T13:44:04.100Z,98909.77
2023-03-26T13:48:17.439Z,98906.27
2023-03-26T13:52:28.294Z,98904.92
2023-03-26T13:56:38.240Z,98904.00
2023-03-26T14:00:56.332Z,98907.23
2023-03-26T14:05:08.486Z,98902.02
2023-03-26T14:09:20.993Z,98902.71
2023-03-26T14:13:33.124Z,98901.66
2023-03-26T14:17:47.114Z,98900.92
2023-03-26T14:22:09.273Z,98901.46
2023-03-26T14:26:27.258Z,98899.64
2023-03-26T14:30:56.642Z,98892.74
2023-03-26T14:35:13.611Z,98884.98
2023-03-26T14:39:40.840Z,98872.71
2023-03-26T14:44:20.137Z,98863.70
2023-03-26T14:48:51.872Z,98861.48
2023-03-26T14:53:02.965Z,98859.33
2023-03-26T14:57:49.809Z,98860.49
2023-03-26T15:02:30.320Z,98861.72
2023-03-26T15:07:09.014Z,98861.38
2023-03-26T15:11:23.023Z,98869.80
2023-03-26T15:16:08.661Z,98887.08
2023-03-26T15:20:34.766Z,98897.87
2023-03-26T15:25:32.065Z,98896.04
2023-03-26T15:29:57.012Z,98890.82
2023-03-26T15:34:38.592Z,98887.48
2023-03-26T15:39:24.797Z,98879.70
2023-03-26T15:44:24.786Z,98863.06
2023-03-26T15:48:35.701Z,98849.66
2023-03-26T15:52:52.045Z,98845.52
2023-03-26T15:57:20.404Z,98842.98
2023-03-26T16:01:47.530Z,98844.75
2023-03-26T16:06:15.915Z,98842.98
2023-03-26T16:10:29.618Z,98842.48
2023-03-26T16:14:46.123Z,98840.05
2023-03-26T16:19:00.712Z,98839.16
2023-03-26T16:23:11.737Z,98831.44
2023-03-26T16:27:34.371Z,98834.98
2023-03-26T16:32:05.829Z,98831.41
2023-03-26T16:36:34.857Z,98831.38
2023-03-26T16:40:58.298Z,98829.23
2023-03-26T16:45:19.168Z,98827.49
2023-03-26T16:49:34.403Z,98830.61
2023-03-26T16:53:46.783Z,98826.64
2023-03-26T16:57:59.633Z,98824.39
2023-03-26T17:02:13.865Z,98825.74
2023-03-26T17:06:31.223Z,98820.25
2023-03-26T17:10:44.513Z,98820.92
2023-03-26T17:15:06.263Z,98824.17
2023-03-26T17:19:23.226Z,98826.95
2023-03-26T17:23:39.627Z,98828.70
2023-03-26T17:27:52.224Z,98837.09
2023-03-26T17:32:09.498Z,98845.15
2023-03-26T17:36:33.659Z,98852.91
2023-03-26T17:40:55.066Z,98850.06
2023-03-26T17:45:05.490Z,98853.95
2023-03-26T17:49:19.532Z,98852.20
2023-03-26T17:53:31.420Z,98851.33
2023-03-26T17:57:44.493Z,98847.02
2023-03-26T18:01:56.124Z,98849.08
2023-03-26T18:06:08.843Z,98847.34
2023-03-26T18:10:34.238Z,98850.38
2023-03-26T18:15:02.864Z,98849.02
2023-03-26T18:19:22.297Z,98852.66
2023-03-26T18:23:36.283Z,98847.34
2023-03-26T18:27:44.760Z,98846.86
2023-03-26T18:31:57.933Z,98843.20
2023-03-26T18:36:07.410Z,98836.78
2023-03-26T18:40:19.711Z,98832.64
2023-03-26T18:44:28.228Z,98829.46
2023-03-26T18:48:36.447Z,98827.09
2023-03-26T18:52:44.859Z,98832.20
2023-03-26T18:56:53.341Z,98826.20
2023-03-26T19:01:04.115Z,98820.78
2023-03-26T19:05:17.038Z,98817.20
2023-03-26T19:09:31.746Z,98815.98
2023-03-26T19:13:43.327Z,98814.27
2023-03-26T19:17:56.951Z,98815.80
2023-03-26T19:22:05.556Z,98816.46
2023-03-26T19:26:14.232Z,98808.77
2023-03-26T19:30:29.648Z,98802.11
2023-03-26T19:34:41.235Z,98810.20
2023-03-26T19:38:54.267Z,98810.64
2023-03-26T19:43:03.778Z,98806.44
2023-03-26T19:47:21.208Z,98802.55
2023-03-26T19:51:37.069Z,98800.20
2023-03-26T19:55:52.131Z,98796.52
2023-03-26T20:00:01.214Z,98793.70
2023-03-26T20:04:11.725Z,98792.77
2023-03-26T20:08:20.370Z,98791.34
2023-03-26T20:12:28.736Z,98788.83
2023-03-26T20:16:37.492Z,98781.63
2023-03-26T20:20:45.197Z,98778.18
2023-03-26T20:24:54.906Z,98769.73
2023-03-26T20:29:05.991Z,98764.80
2023-03-26T20:33:19.380Z,98758.90
2023-03-26T20:37:27.631Z,98756.95
2023-03-26T20:41:36.040Z,98751.97
2023-03-26T20:45:44.918Z,98749.70
2023-03-26T20:49:52.871Z,98742.03
2023-03-26T20:54:00.727Z,98738.05
2023-03-26T20:58:10.037Z,98736.30
2023-03-26T21:02:18.159Z,98731.36
2023-03-26T21:06:26.408Z,98730.36
2023-03-26T21:10:36.519Z,98733.98
2023-03-26T21:14:45.619Z,98746.55
2023-03-26T21:18:55.332Z,98758.05
2023-03-26T21:23:09.234Z,98762.27
2023-03-26T21:27:26.432Z,98757.34
2023-03-26T21:31:38.404Z,98751.42
2023-03-26T21:35:52.029Z,98746.48
2023-03-26T21:40:12.649Z,98748.49
2023-03-26T21:44:22.135Z,98750.09
2023-03-26T21:48:32.242Z,98746.23
2023-03-26T21:52:51.187Z,98737.54
2023-03-26T21:57:14.867Z,98745.33
2023-03-26T22:01:29.485Z,98741.40
2023-03-26T22:05:41.671Z,98739.52
2023-03-26T22:09:50.854Z,98739.88
2023-03-26T22:13:58.564Z,98742.05
2023-03-26T22:18:07.579Z,98743.39
2023-03-26T22:22:15.681Z,98747.05
2023-03-26T22:26:25.268Z,98740.94
2023-03-26T22:30:32.776Z,98750.07
2023-03-26T22:34:41.535Z,98750.96
2023-03-26T22:38:53.289Z,98742.78
2023-03-26T22:43:02.413Z,98746.67
2023-03-26T22:47:10.670Z,98757.14
2023-03-26T22:51:18.878Z,98753.36
2023-03-26T22:55:28.193Z,98751.02
2023-03-26T22:59:37.185Z,98746.45
2023-03-26T23:03:44.977Z,98744.20
2023-03-26T23:07:53.024Z,98740.55
2023-03-26T23:12:01.392Z,98744.83
2023-03-26T23:16:11.300Z,98746.64
2023-03-26T23:20:20.463Z,98752.20
2023-03-26T23:24:28.338Z,98750.62
2023-03-26T23:28:36.960Z,98755.33
2023-03-26T23:32:45.032Z,98757.42
2023-03-26T23:36:53.946Z,98764.14
2023-03-26T23:41:02.128Z,98771.56
2023-03-26T23:45:12.637Z,98785.08
2023-03-26T23:49:22.065Z,98780.70
2023-03-26T23:53:33.528Z,98779.23
2023-03-26T23:57:42.221Z,98776.15
